Etusivu
METAR-TAF:

METAR-TAF

Lentoasemat :

Al-Ubayyid, Sudan

Leveyspiiri: 13-10N, Pituuspiiri: 030-14E, korkeus merenpinnasta: 574 m

METAR: puuttuu

Aika: 02:00 (00:00 UTC)

Sääennuste

Tämä raportti tehtiin 1 tunti ja 0 minuuttia sitten, kello 23.00 UTC
Ennuste voimassa 05. päivästä klo 00 UTC - 06. päivään klo 06 UTC
Tuuli 8 kn pohjoisesta/koillisesta puuskistuen 18 kn:hen
Näkyvyys 10 km tai enemmän
ei pilviä alle 1500 m:ssä eikä cumulonimbus-pilviä
Ajoittain
05. päivästä klo 05 UTC - 05. päivään klo 09 UTC
Näkyvyys: 6000 m

TAF: HSOB 042300Z 0500/0606 02008G18KT CAVOK TEMPO 0505/0509 6000 NSC

Säähavainnot ja -ennusteet yli 4000 lentoasemalta (METAR- ja TAF-raportit).

Käytössä olevat sääasemat on merkitty karttaan keltaisilla ja punaisilla pisteillä.

Aseta hiiri pisteen päälle nähdäksesi sääaseman nimen.

Klikkaa sitten nähdäksesi säähavainnot ja -ennusteet.

Kartan vaihtaminen: klikkaa mustalla rastilla varustettuja vihreitä pisteitä, niin voit zoomata sisään; viivalla varustettua vihreää pistettä, niin voit zoomata ulos tai vihreitä nuolia, niin pääset viereisille kartoille.


METAR-TAF: